Time;durP1;ratioP1;P1;durP2;ratioP2;P2;SDS_P1;SDS_P2;PMS_P1;PMS_P2;Temp;Humidity;BMP_temperature;BMP_pressure;BME280_temperature;BME280_humidity;BME280_pressure;Samples;Min_cycle;Max_cycle;Signal;HPM_P1;HPM_P2
2023/10/16 00:01:27;;;;;;;0.50;0.40;;;;;;;17.00;68.14;94800.91;5134718;27;20569;-58
2023/10/16 00:03:56;;;;;;;0.73;0.40;;;;;;;16.98;67.82;94795.06;5135730;27;20435;-57
2023/10/16 00:06:25;;;;;;;0.57;0.47;;;;;;;17.11;67.27;94794.06;5109275;27;20444;-58
2023/10/16 00:09:00;;;;;;;0.57;0.33;;;;;;;16.66;67.38;94737.59;5135052;27;20517;-58
2023/10/16 00:11:28;;;;;;;0.40;0.30;;;;;;;17.21;67.18;94791.03;5135138;27;20433;-58
2023/10/16 00:13:57;;;;;;;0.40;0.30;;;;;;;17.30;67.48;94794.47;5135102;27;20974;-58
2023/10/16 00:16:28;;;;;;;0.50;0.30;;;;;;;17.23;67.25;94788.81;5135219;27;20441;-59
2023/10/16 00:18:59;;;;;;;0.47;0.30;;;;;;;17.32;66.34;94784.19;5134760;27;20932;-58
2023/10/16 00:21:30;;;;;;;0.60;0.43;;;;;;;17.26;66.96;94792.72;5135015;27;20474;-59
2023/10/16 00:23:59;;;;;;;0.50;0.50;;;;;;;17.13;67.20;94791.84;5134893;27;20431;-59
2023/10/16 00:26:30;;;;;;;4.23;0.37;;;;;;;17.17;67.19;94781.28;5134056;27;20842;-59
2023/10/16 00:29:17;;;;;;;0.40;0.30;;;;;;;17.23;66.72;94793.41;5134534;27;20434;-59
2023/10/16 00:31:51;;;;;;;0.57;0.40;;;;;;;17.10;67.11;94797.88;5134515;27;20990;-58
2023/10/16 00:34:23;;;;;;;0.60;0.50;;;;;;;16.28;71.19;94806.25;5135166;27;20434;-58
2023/10/16 00:36:53;;;;;;;2.27;0.50;;;;;;;15.75;72.22;94729.13;5134503;27;20441;-58
2023/10/16 00:39:26;;;;;;;0.67;0.63;;;;;;;15.52;75.27;94811.28;5134966;27;20438;-58
2023/10/16 00:41:57;;;;;;;0.80;0.57;;;;;;;14.77;80.04;94822.19;5134269;27;20493;-58
2023/10/16 00:44:33;;;;;;;1.53;0.90;;;;;;;15.02;80.51;94818.03;5134623;27;20466;-56
2023/10/16 00:47:05;;;;;;;0.67;0.67;;;;;;;15.28;78.65;94819.69;5110478;27;20457;-58
2023/10/16 00:49:34;;;;;;;0.70;0.60;;;;;;;15.87;75.38;94804.88;5134091;27;20486;-57
2023/10/16 00:52:04;;;;;;;1.33;1.23;;;;;;;16.13;73.24;94796.84;5134360;27;20446;-57
2023/10/16 00:54:39;;;;;;;0.40;0.30;;;;;;;16.09;73.60;94798.56;5133959;27;20446;-58
2023/10/16 00:57:10;;;;;;;0.50;0.40;;;;;;;15.54;75.62;94781.59;5124934;27;20442;-58
2023/10/16 00:59:41;;;;;;;0.60;0.60;;;;;;;15.51;78.44;94811.59;5132496;27;20834;-58
2023/10/16 01:02:14;;;;;;;0.80;0.80;;;;;;;15.82;75.35;94798.88;5134284;27;20462;-58
2023/10/16 01:04:43;;;;;;;0.83;0.83;;;;;;;15.96;74.87;94815.56;5133684;27;20444;-58
2023/10/16 01:07:14;;;;;;;0.50;0.40;;;;;;;15.75;76.40;94814.63;5133996;27;20944;-57
2023/10/16 01:09:46;;;;;;;0.50;0.40;;;;;;;15.83;75.91;94816.50;5134387;27;20438;-57
2023/10/16 01:12:16;;;;;;;0.80;0.60;;;;;;;16.06;74.68;94820.59;5134041;27;20865;-57
2023/10/16 01:14:45;;;;;;;0.60;0.33;;;;;;;16.11;74.85;94823.13;5134564;27;20445;-58
2023/10/16 01:17:14;;;;;;;0.40;0.30;;;;;;;15.81;75.56;94824.06;5133901;27;20449;-58
2023/10/16 01:19:44;;;;;;;1.43;1.33;;;;;;;15.90;74.85;94824.84;5133733;27;20525;-58
2023/10/16 01:22:15;;;;;;;0.50;0.50;;;;;;;16.08;74.22;94837.09;5133802;27;20477;-58
2023/10/16 01:24:45;;;;;;;1.07;0.83;;;;;;;15.78;75.90;94830.81;5133761;27;20511;-58
2023/10/16 01:27:29;;;;;;;1.17;1.17;;;;;;;15.86;75.67;94824.66;5133889;27;20528;-58
2023/10/16 01:29:59;;;;;;;0.77;0.40;;;;;;;15.51;75.55;94774.97;5133884;27;20806;-58
2023/10/16 01:32:31;;;;;;;0.60;0.40;;;;;;;16.00;74.21;94821.84;5134175;27;20951;-58
2023/10/16 01:35:00;;;;;;;0.80;0.50;;;;;;;16.04;74.23;94816.69;5133462;27;20445;-58
2023/10/16 01:37:30;;;;;;;0.40;0.30;;;;;;;16.36;72.20;94811.59;5133735;27;20446;-57
2023/10/16 01:40:17;;;;;;;0.50;0.27;;;;;;;16.52;71.24;94822.59;5129550;27;20471;-57
2023/10/16 01:42:45;;;;;;;0.60;0.57;;;;;;;16.02;74.37;94824.19;5126730;27;20935;-57
2023/10/16 01:45:14;;;;;;;0.50;0.30;;;;;;;15.97;74.87;94827.03;5133715;27;20465;-57
2023/10/16 01:47:43;;;;;;;0.63;0.53;;;;;;;16.24;74.13;94832.84;5132799;27;20442;-57
2023/10/16 01:50:21;;;;;;;0.40;0.27;;;;;;;16.31;74.50;94829.69;5133689;27;21007;-58
2023/10/16 01:52:50;;;;;;;0.40;0.30;;;;;;;16.34;73.74;94834.41;5133160;27;20447;-57
2023/10/16 01:55:21;;;;;;;0.50;0.37;;;;;;;16.16;74.69;94836.31;5133611;27;20462;-57
2023/10/16 01:57:50;;;;;;;0.50;0.30;;;;;;;16.24;74.77;94832.06;5132811;27;20434;-57
2023/10/16 02:00:24;;;;;;;0.50;0.30;;;;;;;16.22;74.40;94836.94;5133151;27;20499;-57
2023/10/16 02:02:54;;;;;;;0.40;0.30;;;;;;;16.13;75.52;94836.16;5133747;27;20800;-57
2023/10/16 02:05:23;;;;;;;0.50;0.40;;;;;;;15.80;75.21;94833.97;5133116;27;20960;-57
2023/10/16 02:07:56;;;;;;;0.40;0.30;;;;;;;15.50;77.12;94821.50;5132684;27;20519;-57
2023/10/16 02:10:27;;;;;;;0.50;0.30;;;;;;;15.44;80.33;94841.41;5130460;27;20442;-57
2023/10/16 02:12:55;;;;;;;0.93;0.60;;;;;;;15.66;80.57;94843.22;5133144;27;20434;-57
2023/10/16 02:15:24;;;;;;;0.83;0.83;;;;;;;15.70;78.63;94838.81;5131939;27;20947;-57
2023/10/16 02:17:53;;;;;;;0.70;0.63;;;;;;;15.97;77.09;94848.41;5133047;27;20890;-57
2023/10/16 02:20:26;;;;;;;0.70;0.33;;;;;;;15.92;77.11;94843.22;5132542;27;20430;-57
2023/10/16 02:22:55;;;;;;;0.50;0.50;;;;;;;15.71;79.08;94843.81;5133366;27;20504;-57
2023/10/16 02:25:23;;;;;;;0.60;0.30;;;;;;;15.72;79.56;94842.75;5132542;27;20711;-57
2023/10/16 02:27:54;;;;;;;0.60;0.30;;;;;;;15.80;78.82;94849.19;5132894;27;20445;-57
2023/10/16 02:30:35;;;;;;;0.50;0.40;;;;;;;15.83;78.52;94854.72;5132578;27;21012;-57
2023/10/16 02:33:14;;;;;;;2.60;0.50;;;;;;;15.62;78.87;94844.91;5132272;27;20450;-56
2023/10/16 02:35:47;;;;;;;6.43;0.87;;;;;;;14.40;84.54;94811.91;5132728;27;20445;-57
2023/10/16 02:38:23;;;;;;;1.13;0.67;;;;;;;14.07;92.34;94864.66;5132723;27;20443;-57
2023/10/16 02:40:54;;;;;;;4.30;1.90;;;;;;;14.23;93.51;94867.75;5132135;27;20444;-57
2023/10/16 02:43:25;;;;;;;0.87;0.77;;;;;;;14.82;88.27;94869.28;5131832;28;20446;-57
2023/10/16 02:45:54;;;;;;;0.60;0.50;;;;;;;15.01;85.25;94869.81;5131565;28;20466;-57
2023/10/16 02:48:23;;;;;;;1.07;0.97;;;;;;;14.60;88.65;94880.75;5125739;28;20438;-57
2023/10/16 02:50:54;;;;;;;0.50;0.37;;;;;;;14.90;85.45;94853.28;5132515;28;20551;-57
2023/10/16 02:53:23;;;;;;;0.60;0.30;;;;;;;15.05;84.49;94868.91;5132293;28;20445;-57
2023/10/16 02:55:53;;;;;;;0.53;0.40;;;;;;;15.26;82.86;94866.47;5132276;28;20491;-56
2023/10/16 02:58:26;;;;;;;0.60;0.30;;;;;;;15.12;83.58;94879.94;5132406;28;20434;-57
2023/10/16 03:00:56;;;;;;;0.50;0.40;;;;;;;15.37;81.49;94865.09;5132041;28;20430;-55
2023/10/16 03:03:26;;;;;;;0.50;0.50;;;;;;;15.11;82.86;94870.34;5131839;28;20980;-56
2023/10/16 03:05:56;;;;;;;0.70;0.60;;;;;;;15.25;82.23;94871.00;5131508;28;21000;-56
2023/10/16 03:08:30;;;;;;;0.40;0.30;;;;;;;15.17;82.60;94877.13;5132602;28;20873;-56
2023/10/16 03:11:04;;;;;;;1.20;0.80;;;;;;;15.21;82.87;94880.75;5132617;28;20439;-56
2023/10/16 03:13:35;;;;;;;6.73;0.70;;;;;;;14.94;84.90;94885.50;5132101;28;20835;-56
2023/10/16 03:16:07;;;;;;;0.50;0.40;;;;;;;14.67;88.03;94899.00;5132071;28;20474;-57
2023/10/16 03:18:42;;;;;;;1.27;0.43;;;;;;;13.92;94.29;94900.41;5131810;28;20927;-57
2023/10/16 03:23:58;;;;;;;1.33;1.23;;;;;;;14.24;92.16;94926.09;5130947;28;20442;-57
2023/10/16 03:26:28;;;;;;;4.90;0.83;;;;;;;14.56;87.06;94882.44;5131429;27;20488;-57
2023/10/16 03:29:01;;;;;;;0.40;0.30;;;;;;;14.61;87.64;94917.00;5135859;27;20438;-56
2023/10/16 03:31:30;;;;;;;2.17;0.60;;;;;;;14.43;91.54;94925.97;5135886;27;20955;-56
2023/10/16 03:33:59;;;;;;;0.60;0.50;;;;;;;14.90;88.74;94937.91;5122519;27;21016;-56
2023/10/16 03:36:28;;;;;;;1.73;1.07;;;;;;;15.12;86.26;94933.31;5135011;27;20880;-57
2023/10/16 03:38:59;;;;;;;0.50;0.40;;;;;;;15.16;85.50;94928.94;5135639;27;20457;-56
2023/10/16 03:41:32;;;;;;;0.87;0.87;;;;;;;14.94;86.40;94928.19;5134745;27;20548;-56
2023/10/16 03:44:13;;;;;;;0.60;0.50;;;;;;;15.32;84.58;94926.66;5135460;27;20492;-56
2023/10/16 03:46:44;;;;;;;0.77;0.77;;;;;;;15.64;82.55;94929.00;5134961;27;20438;-57
2023/10/16 03:49:14;;;;;;;0.50;0.40;;;;;;;15.38;83.48;94932.66;5135733;27;20438;-56
2023/10/16 03:51:44;;;;;;;1.17;0.97;;;;;;;15.01;87.08;94939.22;5134956;27;20938;-56
2023/10/16 03:54:14;;;;;;;1.53;0.77;;;;;;;15.05;89.32;94927.59;5135550;27;20426;-56
2023/10/16 03:56:44;;;;;;;1.30;1.20;;;;;;;15.23;88.77;94931.94;5135636;27;20434;-56
2023/10/16 03:59:15;;;;;;;0.60;0.60;;;;;;;15.44;86.81;94934.88;5135336;27;20434;-56
2023/10/16 04:01:44;;;;;;;0.90;0.83;;;;;;;15.76;83.83;94929.19;5135006;27;20967;-57
2023/10/16 04:04:14;;;;;;;0.70;0.70;;;;;;;15.81;82.52;94930.94;5135000;27;20442;-57
2023/10/16 04:06:43;;;;;;;0.40;0.30;;;;;;;15.63;83.50;94943.47;5135711;27;20434;-57
2023/10/16 04:09:13;;;;;;;0.50;0.30;;;;;;;15.89;83.30;94946.97;5134493;27;20943;-58
2023/10/16 04:11:48;;;;;;;0.80;0.80;;;;;;;16.01;81.52;94942.94;5135027;27;20487;-57
2023/10/16 04:14:19;;;;;;;0.50;0.50;;;;;;;15.86;79.38;94936.91;5135359;27;20446;-57
2023/10/16 04:16:54;;;;;;;1.13;1.13;;;;;;;15.83;78.42;94960.81;5135118;27;20431;-58
2023/10/16 04:19:36;;;;;;;2.80;1.10;;;;;;;15.65;78.13;94959.97;5108932;27;20437;-57
2023/10/16 04:22:09;;;;;;;1.20;1.17;;;;;;;15.82;76.59;94953.88;5134869;27;20470;-58
2023/10/16 04:24:45;;;;;;;0.80;0.80;;;;;;;15.78;75.39;94959.06;5134758;27;20442;-58
2023/10/16 04:33:13;;;;;;;0.63;0.60;;;;;;;16.05;72.73;94982.09;5134004;27;20450;-58
2023/10/16 04:36:49;;;;;;;1.10;0.70;;;;;;;16.24;71.19;94971.88;5134277;27;20924;-58
2023/10/16 04:38:54;;;;;;;0.73;0.50;;;;;;;16.19;71.91;94968.59;5133188;27;20521;-58
2023/10/16 04:44:24;;;;;;;1.10;0.43;;;;;;;16.11;68.90;94996.91;5070408;28;20518;-52
2023/10/16 04:47:00;;;;;;;0.50;0.40;;;;;;;15.93;69.26;95000.63;5044941;28;20512;-51
2023/10/16 04:49:31;;;;;;;0.50;0.50;;;;;;;16.33;69.52;95012.81;5088935;27;20439;-51
2023/10/16 04:52:14;;;;;;;1.07;0.53;;;;;;;16.37;68.03;95021.00;5134295;27;20446;-51
2023/10/16 04:55:02;;;;;;;3.80;1.40;;;;;;;16.07;66.94;95003.16;5134140;27;20466;-51
2023/10/16 04:57:47;;;;;;;0.70;0.60;;;;;;;16.30;66.82;95023.34;5133357;27;20484;-51
2023/10/16 05:00:54;;;;;;;2.47;0.97;;;;;;;16.30;66.26;95037.50;5133719;27;20441;-51
2023/10/16 05:03:24;;;;;;;0.60;0.50;;;;;;;16.28;65.95;95047.72;5109815;27;21013;-51
2023/10/16 05:08:59;;;;;;;3.43;0.40;;;;;;;15.95;65.00;95061.75;5131482;27;20442;-52
2023/10/16 05:11:27;;;;;;;0.77;0.77;;;;;;;15.83;65.13;95049.00;5133940;27;20467;-51
2023/10/16 05:14:04;;;;;;;0.50;0.30;;;;;;;16.10;64.83;95056.81;5133649;27;20442;-51
2023/10/16 05:16:33;;;;;;;0.80;0.40;;;;;;;16.00;65.70;95054.41;5133393;27;20477;-51
2023/10/16 05:19:17;;;;;;;0.50;0.37;;;;;;;16.02;65.24;95064.78;5133476;27;20434;-51
2023/10/16 05:22:02;;;;;;;0.50;0.40;;;;;;;16.06;63.71;95068.44;5133620;27;20438;-51
2023/10/16 06:14:34;;;;;;;0.50;0.47;;;;;;;16.29;62.83;95160.84;5132882;27;20442;-51
2023/10/16 06:17:13;;;;;;;1.93;1.60;;;;;;;16.62;61.93;95170.09;5132979;27;20442;-51
2023/10/16 06:19:42;;;;;;;0.60;0.50;;;;;;;16.68;60.77;95173.44;5133203;27;20829;-73
2023/10/16 06:22:12;;;;;;;0.40;0.20;;;;;;;16.31;60.58;95121.22;5131194;27;20438;-64
2023/10/16 06:24:46;;;;;;;0.70;0.53;;;;;;;16.61;60.07;95183.81;5132603;27;20513;-59
2023/10/16 06:27:20;;;;;;;0.53;0.43;;;;;;;16.74;60.65;95188.25;5131897;27;21026;-60
2023/10/16 06:29:51;;;;;;;0.40;0.30;;;;;;;16.55;58.71;95185.03;5132191;27;20498;-58
2023/10/16 06:32:22;;;;;;;0.40;0.27;;;;;;;16.72;59.90;95198.50;5132382;27;20438;-58
2023/10/16 06:34:57;;;;;;;0.60;0.50;;;;;;;16.76;58.53;95205.59;5132625;27;20453;-58
2023/10/16 06:37:28;;;;;;;0.60;0.60;;;;;;;16.28;58.86;95191.34;5132644;27;20422;-58
2023/10/16 06:40:01;;;;;;;0.50;0.50;;;;;;;16.41;59.75;95218.03;5131358;27;20472;-58
2023/10/16 06:42:30;;;;;;;0.50;0.40;;;;;;;16.39;59.71;95225.53;5132487;28;20458;-59
2023/10/16 06:45:06;;;;;;;0.87;0.40;;;;;;;16.16;58.89;95216.00;5132116;28;21177;-58
2023/10/16 06:47:36;;;;;;;0.40;0.30;;;;;;;15.93;59.33;95222.47;5132693;28;20499;-58
2023/10/16 06:50:35;;;;;;;0.50;0.40;;;;;;;15.71;59.42;95217.13;5106466;28;20430;-58
2023/10/16 06:53:00;;;;;;;0.47;0.33;;;;;;;16.03;59.74;95222.22;5131957;28;20442;-58
2023/10/16 06:55:30;;;;;;;0.60;0.50;;;;;;;15.95;59.26;95220.25;5132543;28;20477;-59
2023/10/16 06:57:59;;;;;;;0.40;0.30;;;;;;;16.23;60.95;95215.56;5131551;28;20430;-58
2023/10/16 07:00:31;;;;;;;0.53;0.40;;;;;;;15.70;59.87;95219.00;5132638;28;20434;-58
2023/10/16 07:03:09;;;;;;;0.87;0.83;;;;;;;15.46;61.27;95229.16;5134453;27;20553;-58
2023/10/16 07:05:44;;;;;;;0.97;0.50;;;;;;;15.82;60.89;95227.25;5136691;27;20444;-58
2023/10/16 07:08:16;;;;;;;0.40;0.30;;;;;;;16.39;60.05;95233.56;5136964;27;20433;-58
2023/10/16 07:10:50;;;;;;;1.27;0.40;;;;;;;16.20;60.40;95233.00;5135671;27;20522;-58
2023/10/16 07:13:26;;;;;;;0.57;0.40;;;;;;;16.59;59.70;95224.25;5138101;27;20426;-58
2023/10/16 07:15:57;;;;;;;1.00;1.00;;;;;;;16.85;59.10;95235.84;5136108;27;20434;-59
2023/10/16 07:18:25;;;;;;;0.60;0.40;;;;;;;16.39;58.92;95217.50;5136353;27;20449;-58
2023/10/16 07:21:06;;;;;;;0.80;0.67;;;;;;;15.88;59.71;95218.03;5136273;27;20437;-59
2023/10/16 07:23:36;;;;;;;0.70;0.50;;;;;;;15.70;59.76;95160.22;5136020;27;20923;-59
2023/10/16 07:26:09;;;;;;;0.77;0.50;;;;;;;16.20;60.32;95243.69;5136162;27;21017;-58
2023/10/16 07:28:39;;;;;;;0.80;0.80;;;;;;;16.04;59.95;95237.13;5136094;27;20438;-58
2023/10/16 07:31:10;;;;;;;0.70;0.70;;;;;;;15.99;60.15;95239.94;5136172;27;20492;-59
2023/10/16 07:33:41;;;;;;;0.40;0.30;;;;;;;16.25;60.32;95240.91;5136055;27;20445;-60
2023/10/16 07:36:12;;;;;;;0.40;0.30;;;;;;;16.42;59.38;95235.63;5135997;27;20939;-59
2023/10/16 07:38:41;;;;;;;0.50;0.40;;;;;;;16.75;59.19;95273.59;5135386;27;20434;-59
2023/10/16 07:41:13;;;;;;;0.90;0.40;;;;;;;16.81;59.13;95247.47;5135669;27;20519;-58
2023/10/16 07:43:45;;;;;;;0.70;0.57;;;;;;;16.91;58.98;95253.34;5136075;27;20501;-59
2023/10/16 07:46:27;;;;;;;0.50;0.50;;;;;;;16.80;58.35;95268.09;5135502;27;20435;-59
2023/10/16 07:49:01;;;;;;;0.50;0.40;;;;;;;16.86;58.60;95266.06;5135490;27;20926;-59
2023/10/16 07:51:30;;;;;;;0.50;0.30;;;;;;;16.76;58.81;95272.50;5134434;27;20430;-59
2023/10/16 07:54:00;;;;;;;1.03;0.60;;;;;;;16.88;58.80;95269.22;5135429;27;20442;-59
2023/10/16 07:56:32;;;;;;;0.50;0.30;;;;;;;16.82;58.64;95276.63;5135375;27;20437;-60
2023/10/16 07:59:08;;;;;;;1.03;0.57;;;;;;;17.17;58.18;95280.22;5135291;27;20563;-59
2023/10/16 08:01:48;;;;;;;0.50;0.33;;;;;;;17.19;57.24;95274.53;5110241;27;20462;-60
2023/10/16 08:04:27;;;;;;;0.70;0.40;;;;;;;17.05;57.86;95282.69;5135062;27;20469;-60
2023/10/16 08:07:04;;;;;;;1.20;1.00;;;;;;;17.12;57.56;95266.97;5135567;27;20438;-61
2023/10/16 08:12:34;;;;;;;1.97;1.47;;;;;;;17.56;56.70;95279.34;5134503;27;20438;-61
2023/10/16 08:15:14;;;;;;;0.60;0.50;;;;;;;17.59;58.86;95295.59;5133591;27;20435;-58
2023/10/16 08:17:47;;;;;;;0.60;0.50;;;;;;;17.87;58.21;95292.63;5134709;27;20505;-56
2023/10/16 08:20:18;;;;;;;0.73;0.57;;;;;;;17.34;56.82;95199.06;5134925;27;20525;-59
2023/10/16 08:22:48;;;;;;;1.53;1.20;;;;;;;17.66;55.57;95273.69;5135230;27;20935;-60
2023/10/16 08:30:52;;;;;;;0.60;0.60;;;;;;;18.10;55.64;95310.13;5134833;27;20931;-61
2023/10/16 08:33:30;;;;;;;5.60;0.60;;;;;;;17.82;57.62;95316.91;5121091;27;20442;-61
2023/10/16 08:36:04;;;;;;;0.80;0.40;;;;;;;17.83;56.88;95321.19;5134704;27;20437;-61
2023/10/16 08:38:36;;;;;;;0.87;0.70;;;;;;;18.32;57.79;95323.38;5134976;27;20441;-60
2023/10/16 08:41:14;;;;;;;0.73;0.40;;;;;;;18.11;57.46;95327.81;5134687;27;20435;-60
2023/10/16 08:43:54;;;;;;;0.97;0.40;;;;;;;18.15;57.23;95334.13;5110548;27;20452;-59
2023/10/16 08:46:31;;;;;;;0.40;0.30;;;;;;;17.95;55.97;95324.81;5134744;27;20441;-59
2023/10/16 08:49:02;;;;;;;0.50;0.40;;;;;;;18.07;55.40;95337.59;5134434;27;20433;-61
2023/10/16 08:51:32;;;;;;;2.20;0.53;;;;;;;18.55;58.24;95326.69;5134031;27;20426;-63
2023/10/16 08:54:02;;;;;;;0.40;0.30;;;;;;;18.86;55.26;95343.38;5134089;27;20438;-63
2023/10/16 08:56:31;;;;;;;0.83;0.57;;;;;;;18.64;55.48;95344.38;5125841;27;20517;-63
2023/10/16 08:59:04;;;;;;;0.50;0.30;;;;;;;18.60;54.38;95332.69;5134603;27;20499;-62
2023/10/16 09:01:33;;;;;;;0.50;0.40;;;;;;;18.55;55.19;95353.53;5134141;27;20495;-63
2023/10/16 09:04:06;;;;;;;0.60;0.40;;;;;;;18.39;54.67;95329.06;5133322;27;20473;-63
2023/10/16 09:06:37;;;;;;;0.50;0.30;;;;;;;18.00;53.61;95299.72;5133425;27;20919;-63
2023/10/16 09:09:12;;;;;;;0.50;0.30;;;;;;;18.48;56.12;95342.50;5133679;27;20499;-60
2023/10/16 09:11:45;;;;;;;0.47;0.40;;;;;;;18.57;53.79;95341.38;5133219;27;20831;-61
2023/10/16 09:14:17;;;;;;;0.50;0.50;;;;;;;18.96;51.06;95359.13;5128991;27;20995;-62
2023/10/16 09:16:51;;;;;;;0.60;0.60;;;;;;;18.81;51.34;95357.75;5134344;27;20434;-61
2023/10/16 09:19:31;;;;;;;0.50;0.40;;;;;;;17.85;50.60;95292.16;5134212;27;20433;-61
2023/10/16 09:22:00;;;;;;;0.80;0.60;;;;;;;18.32;51.27;95329.53;5144188;27;20435;-61
2023/10/16 09:24:30;;;;;;;0.50;0.30;;;;;;;18.49;51.47;95350.25;5140358;27;20473;-61
2023/10/16 09:26:59;;;;;;;0.43;0.30;;;;;;;18.26;51.15;95292.47;5133681;27;20995;-62
2023/10/16 09:29:35;;;;;;;0.50;0.27;;;;;;;18.54;50.28;95357.34;5132981;27;20443;-61
2023/10/16 09:32:06;;;;;;;12.47;0.53;;;;;;;19.17;50.58;95356.53;5133500;27;20438;-60
2023/10/16 09:34:35;;;;;;;1.53;0.30;;;;;;;18.90;48.79;95358.50;5133940;27;20442;-58
2023/10/16 09:37:15;;;;;;;0.40;0.30;;;;;;;19.19;49.96;95346.25;5133301;27;20470;-57
2023/10/16 09:39:46;;;;;;;0.43;0.33;;;;;;;19.20;49.93;95345.91;5133095;27;20522;-56
2023/10/16 09:42:15;;;;;;;0.40;0.30;;;;;;;18.81;49.30;95324.75;5107317;27;20434;-57
2023/10/16 09:44:56;;;;;;;0.50;0.30;;;;;;;19.12;50.60;95346.75;5122831;27;20574;-57
2023/10/16 09:47:30;;;;;;;0.40;0.30;;;;;;;19.70;51.60;95335.28;5133080;27;20474;-56
2023/10/16 09:50:00;;;;;;;0.53;0.40;;;;;;;19.49;49.98;95351.38;5133630;27;20441;-55
2023/10/16 09:52:32;;;;;;;0.60;0.60;;;;;;;19.37;50.99;95342.41;5133028;27;20439;-57
2023/10/16 09:55:05;;;;;;;1.00;0.80;;;;;;;19.05;53.08;95337.63;5133575;27;20442;-56
2023/10/16 09:57:38;;;;;;;0.50;0.50;;;;;;;19.24;51.42;95258.19;5132538;27;20466;-56
2023/10/16 10:00:28;;;;;;;0.70;0.60;;;;;;;19.85;51.79;95352.75;5133240;27;20434;-56
2023/10/16 10:03:05;;;;;;;3.40;0.50;;;;;;;19.75;51.37;95348.53;5132808;27;20462;-56
2023/10/16 10:05:47;;;;;;;1.67;0.50;;;;;;;20.20;52.18;95344.09;5132717;27;20470;-56
2023/10/16 10:08:27;;;;;;;0.57;0.40;;;;;;;20.33;50.83;95338.78;5109840;27;20442;-56
2023/10/16 10:11:17;;;;;;;9.83;0.53;;;;;;;19.35;50.46;95304.28;5132676;27;20433;-56
2023/10/16 10:14:26;;;;;;;0.70;0.70;;;;;;;19.27;50.95;95340.06;5132359;27;20460;-56
2023/10/16 10:16:59;;;;;;;0.40;0.20;;;;;;;20.29;52.09;95346.72;5133121;27;21079;-56
2023/10/16 10:19:35;;;;;;;0.70;0.33;;;;;;;20.29;48.66;95345.97;5107314;27;20795;-56
2023/10/16 10:22:06;;;;;;;0.60;0.50;;;;;;;20.19;50.88;95339.03;5132920;27;20453;-55
2023/10/16 10:24:38;;;;;;;0.40;0.20;;;;;;;20.83;49.88;95339.41;5132619;27;20491;-56
2023/10/16 10:27:11;;;;;;;0.40;0.30;;;;;;;20.97;50.04;95331.84;5132331;27;20508;-55
2023/10/16 10:29:43;;;;;;;1.13;1.13;;;;;;;20.49;47.59;95286.69;5133013;27;20434;-55
2023/10/16 10:32:15;;;;;;;0.53;0.37;;;;;;;20.94;48.41;95291.28;5131392;27;20526;-58
2023/10/16 10:34:47;;;;;;;0.50;0.30;;;;;;;21.22;46.62;95320.00;5132660;27;20437;-58
2023/10/16 10:37:44;;;;;;;0.40;0.30;;;;;;;21.73;46.94;95325.81;5105208;27;20937;-58
2023/10/16 10:40:21;;;;;;;0.70;0.40;;;;;;;22.02;45.53;95309.38;5132109;27;20442;-58
2023/10/16 10:42:55;;;;;;;0.67;0.30;;;;;;;22.48;44.60;95321.47;5132330;28;20438;-58
2023/10/16 10:45:33;;;;;;;0.60;0.53;;;;;;;23.07;44.32;95326.94;5100861;28;20482;-62
2023/10/16 10:48:09;;;;;;;0.40;0.30;;;;;;;22.72;43.62;95278.16;5115907;28;20987;-66
2023/10/16 10:50:39;;;;;;;0.83;0.80;;;;;;;23.92;41.39;95317.03;5110178;28;20434;-64
2023/10/16 10:53:14;;;;;;;2.30;0.40;;;;;;;24.47;40.85;95325.94;5131998;28;20431;-59
2023/10/16 10:55:59;;;;;;;3.03;0.57;;;;;;;24.00;41.10;95304.44;5132683;28;20430;-64
2023/10/16 10:58:31;;;;;;;0.60;0.47;;;;;;;24.23;40.52;95318.88;5132811;28;20540;-64
2023/10/16 11:01:26;;;;;;;0.40;0.30;;;;;;;25.51;39.09;95300.34;5131800;28;20437;-64
2023/10/16 11:03:56;;;;;;;1.00;0.50;;;;;;;25.18;38.21;95293.59;5132618;28;20482;-69
2023/10/16 11:09:13;;;;;;;3.27;0.73;;;;;;;25.38;38.21;95312.50;5129056;28;20433;-66
2023/10/16 11:11:44;;;;;;;10.60;0.50;;;;;;;26.23;39.14;95315.41;5126578;28;20525;-68
2023/10/16 11:14:13;;;;;;;5.83;0.43;;;;;;;26.45;37.29;95313.72;5132458;28;20438;-67
2023/10/16 11:16:43;;;;;;;8.33;1.60;;;;;;;25.92;36.91;95321.13;5131677;28;20442;-65
2023/10/16 11:19:23;;;;;;;0.40;0.33;;;;;;;25.90;37.55;95318.00;5131893;28;20430;-64
2023/10/16 11:21:52;;;;;;;0.40;0.30;;;;;;;25.35;37.75;95318.69;5131997;28;20441;-60
2023/10/16 11:24:24;;;;;;;0.60;0.50;;;;;;;25.84;37.33;95316.75;5131990;28;20487;-63
2023/10/16 11:26:57;;;;;;;0.40;0.40;;;;;;;26.36;37.00;95308.56;5131849;28;20550;-64
2023/10/16 11:29:33;;;;;;;0.60;0.50;;;;;;;25.57;37.67;95326.03;5132436;28;20430;-73
2023/10/16 11:32:06;;;;;;;0.50;0.50;;;;;;;25.56;38.60;95319.81;5138359;28;20518;-61
2023/10/16 11:34:44;;;;;;;0.47;0.40;;;;;;;24.29;40.89;95327.50;5131866;28;20439;-62
2023/10/16 11:37:14;;;;;;;0.40;0.30;;;;;;;23.91;39.93;95326.28;5132234;28;20499;-60
2023/10/16 11:39:47;;;;;;;2.50;0.80;;;;;;;23.41;40.80;95328.97;5131655;28;20434;-58
2023/10/16 11:42:16;;;;;;;0.40;0.30;;;;;;;22.50;42.48;95265.19;5131677;28;20446;-58
2023/10/16 11:44:44;;;;;;;0.73;0.60;;;;;;;21.45;43.64;95326.50;5131475;28;20442;-59
2023/10/16 11:47:18;;;;;;;0.60;0.40;;;;;;;21.51;43.70;95340.53;5131226;28;20506;-59
2023/10/16 11:49:58;;;;;;;0.50;0.50;;;;;;;21.77;43.18;95305.91;5109142;27;20442;-59
2023/10/16 11:52:27;;;;;;;0.70;0.60;;;;;;;22.99;41.69;95333.31;5134777;27;20446;-59
2023/10/16 11:54:57;;;;;;;0.80;0.80;;;;;;;22.91;41.12;95313.41;5135072;27;20936;-59
2023/10/16 11:57:27;;;;;;;0.57;0.40;;;;;;;22.87;41.45;95325.28;5131038;27;20496;-59
2023/10/16 11:59:56;;;;;;;1.97;0.57;;;;;;;22.76;41.17;95333.09;5108724;27;21021;-60
2023/10/16 12:02:29;;;;;;;0.90;0.70;;;;;;;23.03;41.60;95329.56;5134146;27;20434;-59
2023/10/16 12:05:05;;;;;;;0.73;0.60;;;;;;;22.60;41.69;95326.81;5134841;27;20434;-59
2023/10/16 12:07:56;;;;;;;0.80;0.70;;;;;;;23.90;39.82;95311.19;5135030;27;20958;-59
2023/10/16 12:10:28;;;;;;;4.60;0.50;;;;;;;24.38;39.55;95320.75;5135078;27;20472;-58
2023/10/16 12:12:57;;;;;;;0.90;0.90;;;;;;;24.48;38.77;95300.41;5108218;27;20522;-56
2023/10/16 12:15:26;;;;;;;0.90;0.70;;;;;;;23.71;39.82;95305.72;5134306;27;20489;-55
2023/10/16 12:17:55;;;;;;;0.53;0.40;;;;;;;24.55;39.02;95322.22;5134667;27;20439;-56
2023/10/16 12:20:27;;;;;;;0.60;0.60;;;;;;;24.05;39.41;95325.03;5134789;27;20495;-55
2023/10/16 12:22:56;;;;;;;1.00;0.77;;;;;;;24.20;38.74;95326.94;5134917;27;20439;-56
2023/10/16 12:25:24;;;;;;;0.50;0.47;;;;;;;24.18;39.20;95329.22;5134156;27;20427;-55
2023/10/16 12:27:53;;;;;;;0.50;0.40;;;;;;;25.25;38.16;95309.97;5134159;27;20491;-55
2023/10/16 12:30:23;;;;;;;0.50;0.30;;;;;;;24.84;38.55;95320.88;5133957;27;20437;-55
2023/10/16 12:32:52;;;;;;;3.43;1.10;;;;;;;25.35;37.85;95280.69;5134861;27;20434;-55
2023/10/16 12:35:22;;;;;;;1.50;0.57;;;;;;;25.58;36.76;95316.72;5134772;27;20438;-55
2023/10/16 12:37:55;;;;;;;1.60;0.83;;;;;;;24.95;37.65;95317.22;5134679;27;20441;-55
2023/10/16 12:40:28;;;;;;;0.90;0.50;;;;;;;25.61;36.80;95308.66;5134162;27;20449;-55
2023/10/16 12:42:59;;;;;;;0.67;0.67;;;;;;;25.72;36.04;95315.03;5134436;27;20453;-55
2023/10/16 12:45:29;;;;;;;0.60;0.50;;;;;;;25.51;36.66;95311.19;5134502;27;20955;-55
2023/10/16 12:47:57;;;;;;;0.50;0.50;;;;;;;23.34;38.80;95320.66;5133722;27;20557;-55
2023/10/16 12:50:27;;;;;;;0.50;0.30;;;;;;;23.69;38.86;95329.66;5134339;27;20978;-56
2023/10/16 12:53:00;;;;;;;0.40;0.30;;;;;;;23.98;37.94;95323.72;5134352;27;21176;-55
2023/10/16 12:55:28;;;;;;;0.70;0.47;;;;;;;24.20;38.10;95326.94;5134430;27;20456;-55
2023/10/16 12:57:57;;;;;;;1.90;0.63;;;;;;;23.08;38.68;95333.91;5134235;27;20491;-55
2023/10/16 13:00:26;;;;;;;0.50;0.40;;;;;;;23.56;38.38;95321.97;5133424;27;20966;-55
2023/10/16 13:02:58;;;;;;;0.73;0.63;;;;;;;24.44;36.90;95327.44;5133600;27;20439;-55
2023/10/16 13:05:30;;;;;;;0.50;0.47;;;;;;;23.87;37.15;95330.84;5134069;27;20445;-55
2023/10/16 13:08:01;;;;;;;0.60;0.40;;;;;;;23.90;36.97;95324.72;5133621;27;20481;-55
2023/10/16 13:10:30;;;;;;;0.43;0.30;;;;;;;24.41;36.48;95322.72;5133699;27;20544;-55
2023/10/16 13:13:00;;;;;;;0.93;0.50;;;;;;;26.14;35.31;95314.88;5133584;27;20839;-55
2023/10/16 13:15:29;;;;;;;0.47;0.40;;;;;;;25.64;34.24;95332.38;5133607;27;20484;-54
2023/10/16 13:17:59;;;;;;;0.50;0.33;;;;;;;24.55;35.82;95331.16;5133730;27;20449;-55